createdAt,value
2023-02-12T00:01:16.925Z,2.40
2023-02-12T00:03:43.604Z,2.70
2023-02-12T00:06:11.234Z,2.93
2023-02-12T00:08:38.945Z,3.67
2023-02-12T00:11:09.561Z,2.20
2023-02-12T00:13:36.451Z,2.50
2023-02-12T00:16:11.867Z,2.23
2023-02-12T00:18:38.898Z,4.00
2023-02-12T00:21:06.251Z,4.10
2023-02-12T00:23:32.895Z,5.77
2023-02-12T00:25:59.605Z,5.20
2023-02-12T00:28:29.741Z,3.80
2023-02-12T00:30:56.653Z,4.63
2023-02-12T00:33:23.312Z,4.13
2023-02-12T00:35:59.099Z,4.00
2023-02-12T00:38:26.028Z,4.03
2023-02-12T00:40:52.785Z,5.67
2023-02-12T00:43:19.590Z,3.97
2023-02-12T00:45:46.864Z,4.77
2023-02-12T00:48:14.210Z,5.07
2023-02-12T00:50:43.681Z,4.73
2023-02-12T00:53:10.377Z,4.03
2023-02-12T00:55:37.151Z,3.80
2023-02-12T00:58:03.992Z,3.53
2023-02-12T01:00:30.714Z,4.87
2023-02-12T01:02:57.701Z,3.83
2023-02-12T01:05:24.526Z,3.53
2023-02-12T01:07:54.433Z,3.37
2023-02-12T01:10:21.340Z,5.30
2023-02-12T01:12:48.497Z,4.80
2023-02-12T01:15:16.045Z,4.33
2023-02-12T01:17:42.928Z,4.37
2023-02-12T01:20:12.546Z,3.03
2023-02-12T01:22:39.638Z,3.13
2023-02-12T01:25:07.545Z,3.10
2023-02-12T01:27:34.244Z,3.80
2023-02-12T01:30:01.693Z,2.67
2023-02-12T01:32:28.357Z,2.90
2023-02-12T01:34:55.055Z,4.47
2023-02-12T01:37:21.746Z,4.80
2023-02-12T01:39:48.382Z,3.63
2023-02-12T01:42:16.175Z,3.70
2023-02-12T01:45:14.444Z,3.77
2023-02-12T01:47:42.849Z,4.03
2023-02-12T01:50:17.888Z,3.00
2023-02-12T01:52:48.494Z,3.00
2023-02-12T01:55:15.655Z,3.53
2023-02-12T01:57:44.187Z,3.27
2023-02-12T02:00:15.177Z,3.07
2023-02-12T02:02:43.834Z,3.03
2023-02-12T02:05:15.859Z,3.07
2023-02-12T02:07:43.772Z,3.50
2023-02-12T02:10:10.596Z,5.87
2023-02-12T02:12:56.485Z,5.40
2023-02-12T02:15:24.050Z,3.67
2023-02-12T02:18:03.645Z,3.37
2023-02-12T02:20:56.426Z,3.90
2023-02-12T02:24:07.687Z,3.90
2023-02-12T02:27:06.360Z,3.93
2023-02-12T02:29:43.178Z,3.60
2023-02-12T02:32:16.845Z,3.50
2023-02-12T02:34:59.681Z,3.45
2023-02-12T02:37:33.437Z,3.27
2023-02-12T02:40:19.768Z,4.28
2023-02-12T02:43:04.579Z,3.13
2023-02-12T02:45:53.555Z,3.00
2023-02-12T02:48:32.682Z,3.70
2023-02-12T02:51:03.744Z,3.63
2023-02-12T02:53:33.822Z,2.93
2023-02-12T02:56:02.892Z,3.23
2023-02-12T02:58:36.569Z,2.80
2023-02-12T03:01:08.317Z,3.67
2023-02-12T03:03:48.862Z,3.43
2023-02-12T03:06:33.478Z,3.97
2023-02-12T03:11:30.762Z,3.60
2023-02-12T03:14:03.451Z,3.60
2023-02-12T03:16:41.825Z,3.00
2023-02-12T03:19:16.140Z,3.70
2023-02-12T03:24:25.562Z,3.30
2023-02-12T03:26:56.729Z,2.90
2023-02-12T03:29:23.462Z,2.87
2023-02-12T03:32:07.416Z,2.70
2023-02-12T03:34:45.182Z,3.53
2023-02-12T03:37:18.202Z,4.27
2023-02-12T03:40:37.468Z,3.97
2023-02-12T03:43:16.216Z,3.90
2023-02-12T03:46:02.832Z,3.10
2023-02-12T03:48:42.973Z,3.43
2023-02-12T03:51:42.502Z,2.90
2023-02-12T03:54:10.845Z,4.17
2023-02-12T03:56:41.614Z,3.93
2023-02-12T03:59:08.363Z,2.63
2023-02-12T04:01:35.360Z,3.10
2023-02-12T04:04:05.609Z,4.03
2023-02-12T04:06:32.624Z,3.10
2023-02-12T04:09:02.973Z,3.20
2023-02-12T04:12:10.222Z,3.10
2023-02-12T04:15:03.412Z,2.80
2023-02-12T04:17:31.956Z,2.37
2023-02-12T04:20:03.832Z,2.70
2023-02-12T04:22:44.951Z,2.90
2023-02-12T04:25:21.787Z,2.80
2023-02-12T04:28:15.345Z,2.87
2023-02-12T04:30:46.542Z,2.60
2023-02-12T04:33:18.404Z,3.87
2023-02-12T04:36:09.161Z,2.73
2023-02-12T04:38:43.840Z,3.70
2023-02-12T04:41:10.762Z,3.30
2023-02-12T04:43:37.528Z,3.40
2023-02-12T04:46:06.118Z,3.10
2023-02-12T04:48:34.641Z,4.20
2023-02-12T04:51:02.113Z,3.00
2023-02-12T04:53:29.142Z,4.83
2023-02-12T04:55:56.109Z,3.80
2023-02-12T04:58:22.929Z,5.10
2023-02-12T05:00:49.544Z,3.77
2023-02-12T05:03:16.165Z,3.90
2023-02-12T05:05:42.769Z,5.00
2023-02-12T05:08:09.372Z,4.63
2023-02-12T05:10:36.035Z,3.47
2023-02-12T05:13:02.675Z,4.27
2023-02-12T05:15:29.333Z,3.17
2023-02-12T05:17:56.009Z,3.70
2023-02-12T05:20:22.652Z,4.40
2023-02-12T05:22:52.692Z,3.10
2023-02-12T05:25:19.349Z,3.90
2023-02-12T05:27:47.176Z,3.30
2023-02-12T05:30:13.958Z,3.63
2023-02-12T05:32:40.596Z,3.37
2023-02-12T05:35:07.705Z,2.90
2023-02-12T05:37:36.249Z,2.80
2023-02-12T05:40:05.245Z,3.50
2023-02-12T05:42:31.833Z,4.37
2023-02-12T05:44:58.468Z,3.00
2023-02-12T05:47:25.124Z,2.97
2023-02-12T05:49:51.924Z,3.47
2023-02-12T05:52:18.543Z,3.30
2023-02-12T05:54:45.135Z,4.10
2023-02-12T05:57:13.785Z,2.93
2023-02-12T05:59:40.439Z,3.70
2023-02-12T06:02:07.152Z,3.97
2023-02-12T06:04:33.768Z,4.23
2023-02-12T06:07:00.409Z,5.10
2023-02-12T06:09:27.190Z,4.07
2023-02-12T06:11:53.960Z,3.90
2023-02-12T06:14:21.141Z,4.20
2023-02-12T06:16:49.711Z,4.57
2023-02-12T06:19:16.822Z,4.83
2023-02-12T06:21:43.914Z,4.87
2023-02-12T06:24:13.322Z,3.73
2023-02-12T06:26:40.084Z,3.77
2023-02-12T06:29:06.960Z,4.23
2023-02-12T06:31:35.198Z,4.43
2023-02-12T06:34:06.750Z,4.87
2023-02-12T06:36:33.742Z,4.30
2023-02-12T06:39:03.889Z,10.13
2023-02-12T06:41:30.872Z,6.37
2023-02-12T06:43:57.568Z,5.63
2023-02-12T06:46:24.386Z,5.80
2023-02-12T06:48:59.065Z,6.07
2023-02-12T06:51:26.822Z,4.77
2023-02-12T06:53:54.330Z,5.73
2023-02-12T06:56:22.765Z,5.17
2023-02-12T06:58:56.693Z,5.03
2023-02-12T07:01:26.577Z,5.03
2023-02-12T07:03:58.123Z,5.20
2023-02-12T07:06:25.504Z,5.57
2023-02-12T07:08:52.166Z,5.83
2023-02-12T07:11:19.188Z,6.23
2023-02-12T07:13:46.087Z,5.53
2023-02-12T07:16:15.299Z,5.50
2023-02-12T07:18:42.906Z,5.63
2023-02-12T07:21:10.431Z,5.60
2023-02-12T07:23:37.445Z,6.00
2023-02-12T07:26:09.125Z,4.70
2023-02-12T07:28:35.933Z,6.27
2023-02-12T07:31:23.455Z,6.13
2023-02-12T07:33:54.897Z,5.70
2023-02-12T07:36:21.854Z,4.93
2023-02-12T07:38:48.608Z,5.03
2023-02-12T07:41:18.309Z,6.67
2023-02-12T07:43:46.770Z,6.50
2023-02-12T07:46:22.503Z,5.60
2023-02-12T07:48:51.405Z,5.43
2023-02-12T07:51:19.371Z,6.10
2023-02-12T07:53:46.650Z,6.53
2023-02-12T07:56:15.895Z,6.93
2023-02-12T07:58:46.884Z,4.80
2023-02-12T08:01:21.716Z,5.07
2023-02-12T08:06:47.667Z,4.53
2023-02-12T08:09:17.753Z,4.30
2023-02-12T08:11:44.892Z,4.17
2023-02-12T08:14:12.962Z,6.00
2023-02-12T08:16:40.599Z,4.93
2023-02-12T08:19:16.892Z,5.17
2023-02-12T08:21:47.293Z,4.47
2023-02-12T08:24:14.111Z,5.00
2023-02-12T08:26:40.772Z,4.43
2023-02-12T08:29:19.781Z,5.60
2023-02-12T08:31:48.788Z,5.13
2023-02-12T08:34:27.579Z,4.73
2023-02-12T08:36:54.993Z,4.37
2023-02-12T08:39:22.854Z,4.20
2023-02-12T08:41:49.669Z,4.57
2023-02-12T08:44:16.985Z,4.27
2023-02-12T08:46:47.233Z,4.87
2023-02-12T08:49:16.187Z,5.00
2023-02-12T08:51:45.917Z,5.03
2023-02-12T08:54:20.936Z,6.07
2023-02-12T08:56:47.761Z,6.07
2023-02-12T08:59:15.750Z,6.70
2023-02-12T09:01:43.057Z,5.70
2023-02-12T09:04:18.710Z,5.60
2023-02-12T09:06:46.582Z,5.13
2023-02-12T09:09:13.339Z,5.03
2023-02-12T09:11:40.370Z,5.10
2023-02-12T09:14:10.489Z,5.17
2023-02-12T09:16:37.971Z,5.63
2023-02-12T09:19:07.969Z,5.53
2023-02-12T09:21:35.130Z,4.37
2023-02-12T09:24:03.555Z,4.67
2023-02-12T09:26:30.650Z,4.97
2023-02-12T09:28:57.481Z,4.77
2023-02-12T09:31:27.498Z,4.70
2023-02-12T09:34:08.529Z,2.87
2023-02-12T09:36:36.437Z,3.37
2023-02-12T09:39:05.695Z,4.33
2023-02-12T09:41:52.470Z,4.13
2023-02-12T09:44:40.913Z,3.40
2023-02-12T09:47:45.269Z,3.10
2023-02-12T09:50:37.380Z,3.42
2023-02-12T09:53:04.781Z,3.90
2023-02-12T09:55:33.303Z,3.40
2023-02-12T09:58:10.784Z,3.73
2023-02-12T10:00:37.413Z,3.30
2023-02-12T10:03:06.090Z,3.73
2023-02-12T10:05:40.472Z,4.33
2023-02-12T10:08:29.090Z,2.97
2023-02-12T10:11:17.550Z,3.60
2023-02-12T10:14:02.409Z,3.40
2023-02-12T10:17:06.977Z,3.30
2023-02-12T10:19:46.005Z,2.40
2023-02-12T10:22:32.852Z,2.47
2023-02-12T10:25:29.871Z,3.00
2023-02-12T10:28:00.080Z,2.63
2023-02-12T10:30:42.851Z,2.70
2023-02-12T10:33:37.560Z,2.23
2023-02-12T10:36:44.550Z,2.93
2023-02-12T10:39:12.881Z,3.10
2023-02-12T10:41:59.999Z,2.87
2023-02-12T10:44:27.428Z,2.77
2023-02-12T10:46:54.241Z,2.70
2023-02-12T10:49:21.719Z,2.37
2023-02-12T10:51:57.622Z,2.63
2023-02-12T10:54:44.922Z,3.47
2023-02-12T10:57:27.864Z,2.57
2023-02-12T10:59:57.483Z,2.90
2023-02-12T11:02:28.476Z,2.83
2023-02-12T11:04:57.058Z,3.13
2023-02-12T11:07:25.148Z,3.93
2023-02-12T11:09:53.861Z,3.10
2023-02-12T11:12:39.779Z,4.83
2023-02-12T11:15:13.698Z,14.60
2023-02-12T11:17:42.857Z,3.53
2023-02-12T11:20:16.031Z,1.90
2023-02-12T11:23:03.777Z,2.40
2023-02-12T11:25:33.281Z,1.63
2023-02-12T11:29:19.551Z,1.50
2023-02-12T11:32:00.816Z,1.70
2023-02-12T11:34:27.599Z,2.17
2023-02-12T11:36:54.458Z,2.07
2023-02-12T11:39:32.911Z,1.47
2023-02-12T11:42:04.698Z,2.43
2023-02-12T11:44:32.873Z,2.00
2023-02-12T11:47:10.611Z,1.90
2023-02-12T11:49:52.570Z,3.07
2023-02-12T11:52:22.103Z,2.13
2023-02-12T11:54:51.114Z,2.20
2023-02-12T11:57:36.170Z,2.23
2023-02-12T12:00:12.557Z,2.20
2023-02-12T12:02:44.207Z,2.40
2023-02-12T12:05:16.016Z,2.30
2023-02-12T12:07:47.188Z,2.33
2023-02-12T12:10:20.672Z,2.07
2023-02-12T12:12:57.543Z,2.45
2023-02-12T12:15:47.561Z,1.90
2023-02-12T12:18:58.328Z,2.50
2023-02-12T12:21:24.875Z,1.97
2023-02-12T12:24:29.812Z,2.03
2023-02-12T12:27:03.366Z,1.90
2023-02-12T12:29:51.881Z,1.92
2023-02-12T12:32:19.764Z,1.57
2023-02-12T12:34:47.405Z,1.73
2023-02-12T12:37:40.509Z,1.50
2023-02-12T12:40:15.106Z,1.97
2023-02-12T12:42:50.137Z,1.50
2023-02-12T12:45:42.995Z,1.13
2023-02-12T12:48:31.411Z,1.58
2023-02-12T12:51:22.906Z,1.50
2023-02-12T12:53:55.977Z,1.40
2023-02-12T12:56:41.320Z,1.23
2023-02-12T12:59:40.933Z,1.60
2023-02-12T13:02:29.010Z,1.30
2023-02-12T13:05:00.503Z,1.05
2023-02-12T13:08:04.687Z,1.50
2023-02-12T13:10:37.029Z,1.00
2023-02-12T13:13:19.120Z,1.10
2023-02-12T13:16:01.094Z,1.05
2023-02-12T13:18:44.709Z,1.40
2023-02-12T13:21:24.522Z,1.00
2023-02-12T13:23:57.958Z,0.90
2023-02-12T13:26:45.728Z,1.05
2023-02-12T13:29:17.399Z,0.90
2023-02-12T13:31:55.344Z,0.88
2023-02-12T13:34:28.737Z,0.82
2023-02-12T13:41:00.116Z,1.10
2023-02-12T13:43:41.330Z,3.83
2023-02-12T13:46:26.085Z,3.30
2023-02-12T13:49:00.878Z,3.35
2023-02-12T13:51:42.897Z,3.50
2023-02-12T13:54:34.252Z,3.17
2023-02-12T13:57:02.862Z,2.10
2023-02-12T13:59:58.573Z,1.40
2023-02-12T14:02:34.216Z,1.35
2023-02-12T14:05:03.648Z,1.42
2023-02-12T14:07:45.841Z,1.15
2023-02-12T14:10:37.281Z,1.15
2023-02-12T14:13:14.920Z,1.00
2023-02-12T14:15:45.060Z,1.50
2023-02-12T14:18:29.081Z,1.73
2023-02-12T14:21:11.330Z,2.42
2023-02-12T14:23:47.197Z,1.77
2023-02-12T14:26:19.604Z,1.67
2023-02-12T14:28:51.230Z,1.30
2023-02-12T14:31:17.848Z,1.13
2023-02-12T14:33:45.580Z,1.60
2023-02-12T14:36:32.494Z,1.40
2023-02-12T14:39:27.082Z,1.30
2023-02-12T14:42:14.991Z,1.52
2023-02-12T14:44:57.874Z,1.70
2023-02-12T14:47:30.573Z,1.30
2023-02-12T14:50:18.090Z,1.40
2023-02-12T14:52:52.117Z,2.03
2023-02-12T14:55:28.615Z,1.40
2023-02-12T14:58:01.408Z,1.90
2023-02-12T15:00:41.445Z,2.47
2023-02-12T15:03:14.482Z,2.15
2023-02-12T15:05:43.551Z,1.95
2023-02-12T15:08:46.385Z,2.70
2023-02-12T15:11:32.850Z,3.47
2023-02-12T15:14:07.092Z,2.35
2023-02-12T15:16:40.528Z,3.10
2023-02-12T15:19:32.127Z,2.83
2023-02-12T15:21:59.583Z,3.73
2023-02-12T15:24:27.566Z,2.80
2023-02-12T15:26:59.181Z,3.03
2023-02-12T15:29:33.114Z,2.23
2023-02-12T15:32:02.380Z,1.83
2023-02-12T15:34:32.089Z,2.00
2023-02-12T15:37:00.490Z,2.13
2023-02-12T15:39:28.847Z,2.05
2023-02-12T15:41:55.494Z,2.10
2023-02-12T15:44:28.756Z,2.10
2023-02-12T15:47:03.421Z,1.85
2023-02-12T15:49:35.623Z,1.95
2023-02-12T15:52:34.744Z,1.70
2023-02-12T15:55:03.228Z,1.37
2023-02-12T15:57:29.840Z,1.30
2023-02-12T16:00:02.619Z,1.13
2023-02-12T16:02:32.109Z,1.57
2023-02-12T16:05:00.621Z,0.90
2023-02-12T16:07:30.026Z,1.10
2023-02-12T16:09:57.258Z,1.23
2023-02-12T16:12:25.779Z,0.90
2023-02-12T16:14:54.490Z,0.87
2023-02-12T16:17:35.601Z,1.23
2023-02-12T16:20:08.859Z,1.40
2023-02-12T16:22:40.677Z,1.30
2023-02-12T16:25:28.410Z,1.20
2023-02-12T16:28:07.182Z,1.50
2023-02-12T16:30:39.155Z,1.50
2023-02-12T16:33:35.460Z,1.27
2023-02-12T16:36:14.799Z,1.23
2023-02-12T16:38:47.631Z,1.57
2023-02-12T16:41:15.862Z,1.10
2023-02-12T16:43:42.565Z,1.00
2023-02-12T16:46:09.588Z,1.17
2023-02-12T16:48:41.852Z,1.03
2023-02-12T16:51:22.011Z,1.30
2023-02-12T16:53:50.102Z,1.10
2023-02-12T16:56:18.551Z,0.80
2023-02-12T16:58:46.647Z,1.13
2023-02-12T17:01:34.446Z,0.90
2023-02-12T17:04:02.526Z,0.93
2023-02-12T17:06:31.086Z,1.20
2023-02-12T17:08:58.170Z,1.20
2023-02-12T17:11:26.460Z,1.40
2023-02-12T17:13:54.777Z,1.73
2023-02-12T17:16:30.693Z,1.50
2023-02-12T17:18:59.123Z,1.80
2023-02-12T17:21:31.745Z,1.70
2023-02-12T17:23:58.622Z,1.83
2023-02-12T17:26:26.001Z,1.90
2023-02-12T17:29:05.292Z,2.50
2023-02-12T17:31:34.010Z,2.30
2023-02-12T17:34:01.330Z,2.23
2023-02-12T17:36:28.516Z,2.40
2023-02-12T17:38:55.704Z,2.47
2023-02-12T17:41:24.730Z,5.17
2023-02-12T17:43:51.760Z,5.47
2023-02-12T17:46:21.757Z,7.63
2023-02-12T17:48:48.804Z,7.00
2023-02-12T17:51:16.341Z,4.70
2023-02-12T17:53:43.616Z,2.87
2023-02-12T17:56:15.565Z,1.93
2023-02-12T17:58:42.924Z,1.87
2023-02-12T18:01:12.564Z,1.80
2023-02-12T18:03:40.814Z,2.60
2023-02-12T18:06:09.299Z,2.43
2023-02-12T18:08:36.777Z,2.20
2023-02-12T18:11:09.122Z,2.23
2023-02-12T18:13:36.613Z,2.23
2023-02-12T18:16:07.595Z,2.43
2023-02-12T18:18:35.487Z,2.87
2023-02-12T18:21:07.755Z,2.63
2023-02-12T18:23:34.587Z,2.80
2023-02-12T18:26:05.984Z,2.60
2023-02-12T18:28:33.427Z,3.63
2023-02-12T18:31:03.823Z,4.60
2023-02-12T18:33:31.584Z,4.70
2023-02-12T18:36:17.540Z,4.30
2023-02-12T18:38:46.546Z,3.97
2023-02-12T18:41:22.690Z,3.70
2023-02-12T18:43:50.297Z,4.50
2023-02-12T18:46:21.108Z,3.90
2023-02-12T18:48:48.501Z,4.77
2023-02-12T18:51:18.028Z,4.40
2023-02-12T18:53:44.869Z,4.60
2023-02-12T18:56:12.376Z,4.20
2023-02-12T18:58:39.574Z,4.87
2023-02-12T19:01:19.887Z,4.17
2023-02-12T19:03:47.696Z,4.30
2023-02-12T19:06:14.534Z,3.43
2023-02-12T19:08:41.181Z,3.63
2023-02-12T19:11:09.189Z,4.87
2023-02-12T19:13:36.850Z,3.60
2023-02-12T19:16:14.460Z,4.53
2023-02-12T19:18:41.137Z,4.03
2023-02-12T19:21:09.281Z,3.73
2023-02-12T19:23:36.250Z,3.80
2023-02-12T19:26:08.545Z,4.03
2023-02-12T19:28:35.823Z,3.50
2023-02-12T19:31:30.652Z,3.70
2023-02-12T19:36:29.141Z,2.80
2023-02-12T19:38:56.005Z,3.00
2023-02-12T19:41:25.572Z,3.10
2023-02-12T19:43:54.455Z,3.60
2023-02-12T19:46:21.886Z,2.70
2023-02-12T19:48:48.746Z,3.43
2023-02-12T19:51:20.421Z,3.27
2023-02-12T19:53:49.828Z,3.20
2023-02-12T19:56:16.991Z,2.60
2023-02-12T19:58:44.052Z,3.33
2023-02-12T20:01:13.343Z,3.57
2023-02-12T20:03:40.185Z,2.73
2023-02-12T20:06:09.862Z,2.97
2023-02-12T20:08:37.596Z,2.83
2023-02-12T20:11:11.604Z,2.97
2023-02-12T20:13:41.753Z,3.47
2023-02-12T20:16:11.223Z,2.43
2023-02-12T20:18:37.971Z,2.83
2023-02-12T20:21:12.853Z,3.53
2023-02-12T20:23:39.743Z,2.73
2023-02-12T20:26:07.900Z,2.80
2023-02-12T20:28:36.644Z,4.27
2023-02-12T20:31:22.841Z,5.60
2023-02-12T20:33:54.701Z,4.37
2023-02-12T20:36:21.400Z,4.00
2023-02-12T20:38:51.379Z,2.73
2023-02-12T20:41:18.226Z,2.60
2023-02-12T20:43:44.905Z,2.37
2023-02-12T20:46:13.656Z,2.73
2023-02-12T20:48:44.480Z,2.70
2023-02-12T20:51:14.094Z,2.20
2023-02-12T20:53:41.337Z,2.13
2023-02-12T20:56:14.442Z,2.50
2023-02-12T20:58:44.716Z,2.27
2023-02-12T21:01:17.522Z,2.63
2023-02-12T21:03:45.103Z,2.30
2023-02-12T21:06:11.735Z,2.97
2023-02-12T21:08:39.613Z,2.50
2023-02-12T21:11:15.403Z,2.10
2023-02-12T21:13:53.721Z,2.73
2023-02-12T21:16:34.551Z,2.70
2023-02-12T21:19:01.361Z,2.77
2023-02-12T21:21:30.251Z,3.00
2023-02-12T21:23:58.362Z,2.57
2023-02-12T21:26:26.955Z,3.33
2023-02-12T21:28:55.741Z,2.43
2023-02-12T21:31:28.385Z,3.00
2023-02-12T21:33:56.964Z,2.70
2023-02-12T21:36:29.366Z,2.93
2023-02-12T21:38:56.522Z,3.20
2023-02-12T21:41:27.906Z,3.53
2023-02-12T21:43:58.215Z,3.27
2023-02-12T21:46:25.672Z,3.50
2023-02-12T21:48:52.552Z,4.40
2023-02-12T21:51:23.788Z,4.20
2023-02-12T21:53:57.715Z,4.13
2023-02-12T21:56:25.360Z,4.73
2023-02-12T21:58:55.623Z,4.43
2023-02-12T22:01:25.926Z,4.60
2023-02-12T22:03:53.045Z,5.23
2023-02-12T22:06:22.284Z,4.80
2023-02-12T22:08:50.004Z,5.00
2023-02-12T22:11:17.329Z,4.73
2023-02-12T22:13:44.196Z,4.10
2023-02-12T22:16:11.508Z,4.30
2023-02-12T22:18:39.570Z,3.40
2023-02-12T22:21:07.223Z,2.93
2023-02-12T22:23:47.914Z,2.50
2023-02-12T22:26:19.771Z,2.47
2023-02-12T22:28:48.622Z,2.17
2023-02-12T22:31:39.443Z,1.60
2023-02-12T22:34:11.924Z,1.93
2023-02-12T22:36:49.533Z,1.80
2023-02-12T22:39:19.278Z,2.10
2023-02-12T22:41:47.027Z,1.97
2023-02-12T22:44:15.980Z,1.70
2023-02-12T22:46:43.342Z,2.00
2023-02-12T22:49:12.477Z,1.90
2023-02-12T22:51:42.181Z,1.57
2023-02-12T22:54:13.684Z,1.83
2023-02-12T22:56:43.809Z,1.63
2023-02-12T22:59:13.135Z,1.83
2023-02-12T23:01:42.290Z,2.00
2023-02-12T23:04:16.202Z,1.60
2023-02-12T23:06:43.311Z,2.10
2023-02-12T23:09:13.325Z,2.30
2023-02-12T23:11:42.307Z,2.17
2023-02-12T23:14:08.984Z,2.00
2023-02-12T23:16:38.249Z,1.97
2023-02-12T23:19:06.534Z,2.10
2023-02-12T23:21:33.270Z,1.67
2023-02-12T23:24:03.046Z,1.80
2023-02-12T23:26:30.040Z,2.07
2023-02-12T23:28:57.124Z,1.80
2023-02-12T23:31:27.250Z,1.80
2023-02-12T23:33:54.144Z,2.10
2023-02-12T23:36:23.717Z,2.10
2023-02-12T23:38:52.575Z,1.83
2023-02-12T23:41:21.101Z,1.57
2023-02-12T23:43:47.882Z,1.90
2023-02-12T23:46:14.545Z,1.50
2023-02-12T23:48:44.638Z,1.60
2023-02-12T23:51:13.846Z,2.30
2023-02-12T23:53:40.450Z,1.50
2023-02-12T23:56:09.575Z,1.47
2023-02-12T23:58:37.232Z,1.87
